Wednesday, April 01, 2015
09:24 UTC
  |  Log In   |  Register Free
Airport Search:

Tyler Pounds Regional Airport
(KTYR)

FAA data valid effective March 05, 2015 - April 30, 2015 (unless otherwise noted).

 
 
 
 
 
 
 
 
 
 
 
 
 
 

Current Aviation Weather for Tyler Pounds Regional Airport (KTYR)

The most recent METAR observation for KTYR was updated at: 0916
METAR Summary (Translated METAR)
KTYR
010905Z AUTO 16005KT 10SM SCT023 BKN030 19/16 A2995 RMK AO2 T01890161
KJDD
010855Z AUTO 16004KT 10SM SCT016 SCT044 19/17 A2995 RMK AO2
(23.8 nm NW from KTYR)
KF44
010855Z AUTO 00000KT 10SM SCT019 OVC029 18/17 A2993 RMK AO2
(24.5 nm SW from KTYR)
TAF Summary (Translated TAF)
KTYR
010523Z 0106/0206 VRB04KT P6SM BKN250 FM011000 17008KT P6SM OVC015 TEMPO 0111/0115 5SM BR OVC007 FM011700 19013G19KT P6SM OVC020 FM020000 19011KT P6SM VCTS SCT035CB BKN100
  Airport Weather Conditions for KTYR

 Current Weather at TYR
66° F
Overcast
South winds at 5.8 mph
TYR NOAA Radar

Pressure: 29.95 in
Humidity: 87%
Wind: South at 5.8 MPH (5 KT)
Dew Point: 62.1°F
Visibility: 10.00 mi


Airport Weather Forecast for KTYR

Translated METAR and TAF for KTYR
Translated METAR for KTYR (0923 UTC 01 April 2015)
found at http://aviationweather.gov/adds/metars/
 
METAR text: KTYR 010905Z AUTO 16005KT 10SM SCT023 BKN030 19/16 A2995 RMK AO2 T01890161
Conditions at: KTYR (TYLER , TX, US) observed 0905 UTC 01 April 2015
Temperature: 18.9°C (66°F)
Dewpoint: 16.1°C (61°F) [RH = 84%]
Pressure (altimeter): 29.95 inches Hg (1014.3 mb)
Winds: from the SSE (160 degrees) at 6 MPH (5 knots; 2.6 m/s)
Visibility: 10 or more miles (16+ km)
Ceiling: 3000 feet AGL
Clouds: scattered clouds at 2300 feet AGL
broken clouds at 3000 feet AGL
Weather: automated observation with no human augmentation;
there may or may not be significant weather present at this time
Translated TAF for KTYR
Forecast for: KTYR (TYLER , TX, US)
TAF Text: KTYR 010523Z 0106/0206 VRB04KT P6SM BKN250
Forecast period: 0600 to 1000 UTC 01 April 2015
Forecast type: FROM: standard forecast or significant change
Winds: variable direction winds at 5 MPH (4 knots; 2.1 m/s)
Visibility: 6 or more miles (10+ km)
Ceiling: 25000 feet AGL
Clouds: broken clouds at 25000 feet AGL
Weather: no significant weather forecast for this period
TAF Text: FM011000 17008KT P6SM OVC015
Forecast period: 1000 to 1700 UTC 01 April 2015
Forecast type: FROM: standard forecast or significant change
Winds: from the S (170 degrees) at 9 MPH (8 knots; 4.2 m/s)
Visibility: 6 or more miles (10+ km)
Ceiling: 1500 feet AGL
Clouds: overcast cloud deck at 1500 feet AGL
Weather: no significant weather forecast for this period
TAF Text: TEMPO 0111/0115 5SM BR OVC007
Forecast period: 1100 to 1500 UTC 01 April 2015
Forecast type: TEMPORARY: The following changes expected for less than half the time period
Visibility: 5 miles (8 km)
Ceiling: 700 feet AGL
Clouds: overcast cloud deck at 700 feet AGL
Weather: BR  (mist)
TAF Text: FM011700 19013G19KT P6SM OVC020
Forecast period: 1700 UTC 01 April 2015 to 0000 UTC 02 April 2015
Forecast type: FROM: standard forecast or significant change
Winds: from the S (190 degrees) at 15 MPH (13 knots; 6.8 m/s)
gusting to 22 MPH (19 knots; 9.9 m/s)
Visibility: 6 or more miles (10+ km)
Ceiling: 2000 feet AGL
Clouds: overcast cloud deck at 2000 feet AGL
Weather: no significant weather forecast for this period
TAF Text: FM020000 19011KT P6SM VCTS SCT035CB BKN100
Forecast period: 0000 to 0600 UTC 02 April 2015
Forecast type: FROM: standard forecast or significant change
Winds: from the S (190 degrees) at 13 MPH (11 knots; 5.7 m/s)
Visibility: 6 or more miles (10+ km)
Ceiling: 10000 feet AGL
Clouds: scattered clouds at 3500 feet AGL
broken clouds at 10000 feet AGL
Weather: VCTS  (thunderstorm in vicinity)

Find All Airport Services Find A Hotel Find A Rental Car Find A Golf Course Find A Restaurant $100 Hamburger



FBO's on the Field
FBO Company Facility Photos Services Transportation Aviation Fuel Prices: Prices include tax
Catering Weather Repair Courtesy Rental Type 100LL JetA JetA+ MOGAS 8087
 
Jet Center of Tyler

Currently rated 5 by 2 people
FS:Phillips 66
Last Updated: Mar-25
Login to update fuel prices
SS:
Contact Jet Center of TylerMore FBO Information
 
Johnson Aviation, Inc

Currently rated 4.4 by 3 people
FS:Avfuel
Last Updated: Feb-26
Login to update fuel prices
SS:
Contact Johnson Aviation, IncMore FBO Information
 
Add another FBO Facility Photos Catering Weather Repair Courtesy Rental Type 100LL JetA JetA+ MOGAS 8087
Services Transportation Aviation Fuel Prices: Prices include tax


model-print
model-print
model-print
model-print